Time;durP1;ratioP1;P1;durP2;ratioP2;P2;SDS_P1;SDS_P2;PMS_P1;PMS_P2;Temp;Humidity;BMP_temperature;BMP_pressure;BME280_temperature;BME280_humidity;BME280_pressure;Samples;Min_cycle;Max_cycle;Signal;HPM_P1;HPM_P2
2023/03/18 00:00:45;;;;;;;6.40;2.40;;;;;;;8.57;100.00;95402.97;5071328;28;24496;-76
2023/03/18 00:03:12;;;;;;;3.33;2.00;;;;;;;8.56;100.00;95398.72;5071069;28;24508;-76
2023/03/18 00:05:39;;;;;;;4.50;2.58;;;;;;;8.56;100.00;95400.47;5070606;28;24473;-76
2023/03/18 00:08:06;;;;;;;4.53;2.65;;;;;;;8.56;100.00;95408.22;5071095;28;24488;-76
2023/03/18 00:10:34;;;;;;;3.83;2.00;;;;;;;8.56;100.00;95415.97;5077034;28;24531;-76
2023/03/18 00:13:01;;;;;;;3.33;2.45;;;;;;;8.55;100.00;95409.16;5071163;28;24443;-76
2023/03/18 00:15:28;;;;;;;5.85;2.47;;;;;;;8.50;100.00;95411.19;5071035;28;21322;-76
2023/03/18 00:17:58;;;;;;;5.03;3.45;;;;;;;8.40;100.00;95421.22;5067161;28;24442;-76
2023/03/18 00:20:37;;;;;;;7.50;3.73;;;;;;;8.44;100.00;95420.13;5068553;28;24580;-76
2023/03/18 00:23:04;;;;;;;7.20;3.92;;;;;;;8.40;100.00;95432.38;5064793;28;21109;-76
2023/03/18 00:25:31;;;;;;;4.78;3.40;;;;;;;8.38;100.00;95433.38;5070136;28;24995;-76
2023/03/18 00:27:58;;;;;;;5.03;3.03;;;;;;;8.39;100.00;95437.63;5070591;28;25133;-76
2023/03/18 00:30:24;;;;;;;4.93;3.00;;;;;;;8.43;100.00;95432.19;5079635;28;24462;-76
2023/03/18 00:32:51;;;;;;;5.20;2.72;;;;;;;8.47;100.00;95440.59;5067981;28;21116;-76
2023/03/18 00:35:20;;;;;;;3.65;2.67;;;;;;;8.51;100.00;95438.66;5070143;28;25000;-76
2023/03/18 00:37:47;;;;;;;6.28;2.72;;;;;;;8.46;100.00;95442.34;5070271;28;24530;-76
2023/03/18 00:40:19;;;;;;;5.93;2.75;;;;;;;8.46;100.00;95438.94;5070609;28;20777;-76
2023/03/18 00:42:49;;;;;;;4.17;2.63;;;;;;;8.46;100.00;95442.34;5074226;28;20843;-76
2023/03/18 00:45:17;;;;;;;5.32;2.67;;;;;;;8.44;100.00;95454.50;5069669;28;21159;-76
2023/03/18 00:47:44;;;;;;;3.22;2.15;;;;;;;8.35;100.00;95452.44;5072274;28;24525;-77
2023/03/18 00:50:11;;;;;;;7.05;2.28;;;;;;;8.40;100.00;95439.28;5072738;28;24454;-77
2023/03/18 00:52:39;;;;;;;3.60;2.28;;;;;;;8.34;100.00;95445.59;5072869;28;24435;-76
2023/03/18 00:55:07;;;;;;;5.38;2.53;;;;;;;8.33;100.00;95450.84;5076750;28;24435;-76
2023/03/18 00:57:34;;;;;;;7.03;2.20;;;;;;;8.35;100.00;95449.84;5069063;28;24442;-78
2023/03/18 01:00:00;;;;;;;3.05;1.80;;;;;;;8.41;100.00;95452.09;5070519;28;24446;-75
2023/03/18 01:02:28;;;;;;;3.72;2.00;;;;;;;8.46;98.44;95460.41;5070222;28;24435;-75
2023/03/18 01:04:55;;;;;;;3.45;2.30;;;;;;;8.52;97.91;95448.88;5070435;28;21330;-76
2023/03/18 01:07:22;;;;;;;5.53;1.88;;;;;;;8.52;97.68;95446.28;5071621;28;24515;-77
2023/03/18 01:09:50;;;;;;;2.50;1.73;;;;;;;8.58;96.60;95443.34;5070234;28;24446;-76
2023/03/18 01:12:16;;;;;;;3.80;1.90;;;;;;;8.58;95.52;95439.94;5070370;28;24434;-76
2023/03/18 01:14:43;;;;;;;2.83;1.90;;;;;;;8.54;93.79;95448.78;5069761;28;24435;-76
2023/03/18 01:17:10;;;;;;;3.08;1.88;;;;;;;8.55;92.38;95448.69;5062835;28;24446;-75
2023/03/18 01:19:37;;;;;;;2.85;1.80;;;;;;;8.60;91.51;95445.81;5070244;28;24519;-76
2023/03/18 01:22:04;;;;;;;3.10;1.80;;;;;;;8.62;91.67;95444.81;5079623;28;24985;-76
2023/03/18 01:24:31;;;;;;;4.63;1.80;;;;;;;8.58;93.22;95448.50;5069961;28;24999;-77
2023/03/18 01:26:59;;;;;;;3.70;2.17;;;;;;;8.60;93.44;95448.41;5069877;28;24458;-75
2023/03/18 01:29:26;;;;;;;4.88;2.03;;;;;;;8.62;95.11;95454.31;5069850;28;24992;-78
2023/03/18 01:31:53;;;;;;;4.60;2.10;;;;;;;8.64;94.03;95437.81;5069708;28;25063;-75
2023/03/18 01:34:20;;;;;;;2.90;1.90;;;;;;;8.52;94.96;95445.47;5066961;28;24438;-76
2023/03/18 01:36:46;;;;;;;5.70;2.17;;;;;;;8.48;95.11;95442.22;5069987;28;24851;-75
2023/03/18 01:39:14;;;;;;;3.33;2.15;;;;;;;8.35;97.04;95455.00;5069423;28;24443;-76
2023/03/18 01:41:41;;;;;;;3.40;2.22;;;;;;;8.22;97.58;95441.16;5069274;28;24988;-76
2023/03/18 01:44:13;;;;;;;6.47;2.15;;;;;;;8.09;97.68;95438.47;5066549;28;21342;-77
2023/03/18 01:46:42;;;;;;;2.95;1.90;;;;;;;8.08;97.19;95436.81;5071332;28;24987;-75
2023/03/18 01:49:11;;;;;;;2.37;1.63;;;;;;;8.17;96.62;95436.28;5070025;28;20814;-76
2023/03/18 01:51:40;;;;;;;6.72;1.85;;;;;;;8.13;96.81;95436.56;5067989;28;20722;-76
2023/03/18 01:54:09;;;;;;;3.60;1.75;;;;;;;8.17;97.15;95435.44;5069820;28;20837;-75
2023/03/18 01:56:38;;;;;;;2.78;1.60;;;;;;;8.22;97.19;95426.50;5069652;28;24453;-76
2023/03/18 01:59:07;;;;;;;3.75;1.95;;;;;;;8.21;97.81;95435.19;5068500;28;20822;-76
2023/03/18 02:01:39;;;;;;;3.42;1.75;;;;;;;7.94;100.00;95436.78;5069755;28;20815;-76
2023/03/18 02:04:09;;;;;;;6.70;2.25;;;;;;;7.73;100.00;95439.66;5069936;28;20765;-76
2023/03/18 02:06:35;;;;;;;6.03;2.20;;;;;;;7.62;100.00;95425.72;5069165;28;25010;-76
2023/03/18 02:09:03;;;;;;;4.28;1.88;;;;;;;7.63;100.00;95430.78;5069642;28;24434;-76
2023/03/18 02:11:32;;;;;;;3.20;2.10;;;;;;;7.59;100.00;95441.38;5069731;28;20794;-76
2023/03/18 02:14:00;;;;;;;5.57;1.88;;;;;;;7.55;100.00;95430.41;5069589;28;20761;-76
2023/03/18 02:16:32;;;;;;;3.42;1.95;;;;;;;7.68;100.00;95430.56;5069626;28;20769;-76
2023/03/18 02:19:06;;;;;;;6.70;2.30;;;;;;;7.81;100.00;95434.06;5069747;28;20789;-76
2023/03/18 02:21:44;;;;;;;2.45;2.03;;;;;;;7.73;100.00;95436.25;5069555;28;20646;-76
2023/03/18 02:24:24;;;;;;;4.60;2.00;;;;;;;7.86;100.00;95434.66;5069608;28;20655;-76
2023/03/18 02:26:58;;;;;;;3.30;1.80;;;;;;;7.62;100.00;95431.72;5066976;28;20659;-76
2023/03/18 02:29:30;;;;;;;2.78;1.70;;;;;;;7.46;100.00;95434.34;5075860;28;20656;-77
2023/03/18 02:32:01;;;;;;;3.88;2.45;;;;;;;7.26;100.00;95432.84;5068569;28;20696;-76
2023/03/18 02:34:29;;;;;;;6.20;2.08;;;;;;;7.14;100.00;95430.13;5069906;28;24516;-77
2023/03/18 02:36:56;;;;;;;4.97;2.80;;;;;;;7.22;100.00;95430.53;5065678;28;24976;-77
2023/03/18 02:39:22;;;;;;;7.35;3.17;;;;;;;7.20;100.00;95434.94;5071588;28;20782;-76
2023/03/18 02:41:49;;;;;;;3.28;2.10;;;;;;;7.18;100.00;95437.59;5073109;28;24439;-77
2023/03/18 02:44:16;;;;;;;3.50;1.70;;;;;;;7.17;100.00;95435.09;5074852;28;24445;-76
2023/03/18 02:46:49;;;;;;;4.32;2.10;;;;;;;7.13;100.00;95431.88;5072584;28;20785;-78
2023/03/18 02:49:18;;;;;;;4.65;2.10;;;;;;;7.11;100.00;95435.44;5071017;28;20696;-77
2023/03/18 02:51:45;;;;;;;4.70;2.00;;;;;;;7.05;100.00;95440.94;5075081;28;20806;-77
2023/03/18 02:54:14;;;;;;;4.53;2.00;;;;;;;6.98;100.00;95441.25;5073677;28;20773;-77
2023/03/18 02:56:42;;;;;;;3.60;2.00;;;;;;;6.99;100.00;95447.22;5069989;28;21146;-77
2023/03/18 02:59:10;;;;;;;4.15;1.90;;;;;;;6.96;100.00;95450.78;5078657;28;20770;-76
2023/03/18 03:01:37;;;;;;;5.07;2.20;;;;;;;6.94;100.00;95456.97;5068643;28;24442;-76
2023/03/18 03:04:06;;;;;;;3.35;1.40;;;;;;;7.01;100.00;95461.69;5072470;28;20773;-77
2023/03/18 03:06:33;;;;;;;4.60;1.85;;;;;;;7.06;100.00;95455.47;5075987;28;20777;-76
2023/03/18 03:09:01;;;;;;;3.22;2.03;;;;;;;7.12;100.00;95458.53;5072217;28;20773;-77
2023/03/18 03:11:28;;;;;;;2.15;1.55;;;;;;;7.22;100.00;95448.56;5072087;28;24435;-76
2023/03/18 03:13:54;;;;;;;2.80;1.60;;;;;;;7.28;100.00;95456.78;5072632;28;20773;-77
2023/03/18 03:16:21;;;;;;;2.70;1.70;;;;;;;7.35;100.00;95454.72;5071962;28;20801;-77
2023/03/18 03:18:48;;;;;;;1.85;1.50;;;;;;;7.37;100.00;95452.84;5072131;28;24434;-77
2023/03/18 03:21:16;;;;;;;3.95;1.80;;;;;;;7.34;100.00;95447.91;5064921;28;24442;-77
2023/03/18 03:23:43;;;;;;;4.00;1.85;;;;;;;7.34;100.00;95455.63;5071143;28;20806;-76
2023/03/18 03:26:10;;;;;;;4.63;2.20;;;;;;;7.34;100.00;95458.22;5068406;28;20808;-76
2023/03/18 03:28:37;;;;;;;5.03;1.90;;;;;;;7.26;100.00;95461.16;5067971;28;21212;-77
2023/03/18 03:31:05;;;;;;;4.30;1.83;;;;;;;7.24;100.00;95460.44;5072490;28;20765;-76
2023/03/18 03:33:33;;;;;;;2.90;1.73;;;;;;;7.09;100.00;95463.84;5072457;28;20811;-75
2023/03/18 03:35:59;;;;;;;2.75;1.80;;;;;;;6.99;100.00;95463.50;5070117;28;21109;-75
2023/03/18 03:38:27;;;;;;;5.55;2.28;;;;;;;6.95;100.00;95459.44;5071617;28;24801;-76
2023/03/18 03:40:53;;;;;;;3.10;1.65;;;;;;;6.84;100.00;95458.34;5072135;28;20818;-75
2023/03/18 03:43:20;;;;;;;2.92;1.65;;;;;;;6.75;100.00;95463.06;5072179;28;24439;-76
2023/03/18 03:45:46;;;;;;;5.35;1.88;;;;;;;6.72;100.00;95455.50;5071921;28;24825;-76
2023/03/18 03:48:13;;;;;;;4.13;1.90;;;;;;;6.70;100.00;95461.66;5072103;28;24508;-76
2023/03/18 03:50:40;;;;;;;3.70;1.70;;;;;;;6.62;100.00;95469.75;5071910;28;24446;-76
2023/03/18 03:53:08;;;;;;;5.18;1.80;;;;;;;6.56;100.00;95472.66;5071928;28;20777;-77
2023/03/18 03:55:36;;;;;;;2.70;1.75;;;;;;;6.59;100.00;95469.09;5071449;28;24450;-76
2023/03/18 03:58:03;;;;;;;3.63;1.80;;;;;;;6.54;100.00;95464.19;5072053;28;20760;-75
2023/03/18 04:00:30;;;;;;;4.35;2.03;;;;;;;6.49;100.00;95464.44;5077481;28;20773;-76
2023/03/18 04:02:56;;;;;;;2.13;1.57;;;;;;;6.50;100.00;95462.69;5075215;28;20773;-76
2023/03/18 04:05:24;;;;;;;3.20;1.63;;;;;;;6.44;100.00;95470.72;5071037;28;25178;-76
2023/03/18 04:07:52;;;;;;;3.72;1.80;;;;;;;6.39;100.00;95477.84;5071291;28;25000;-75
2023/03/18 04:10:20;;;;;;;5.00;1.73;;;;;;;6.36;100.00;95478.00;5078697;28;24785;-73
2023/03/18 04:12:49;;;;;;;4.47;1.70;;;;;;;6.33;100.00;95478.97;5066811;28;24435;-75
2023/03/18 04:15:18;;;;;;;2.53;1.50;;;;;;;6.34;100.00;95477.22;5077909;28;20807;-76
2023/03/18 04:17:45;;;;;;;3.78;1.73;;;;;;;6.28;100.00;95473.25;5069025;28;24435;-77
2023/03/18 04:20:12;;;;;;;2.90;1.70;;;;;;;6.32;100.00;95472.16;5072934;28;24445;-78
2023/03/18 04:22:39;;;;;;;4.00;1.83;;;;;;;6.28;100.00;95478.38;5071460;28;24446;-78
2023/03/18 04:25:06;;;;;;;3.13;1.70;;;;;;;6.27;100.00;95474.97;5072621;28;24430;-78
2023/03/18 04:27:33;;;;;;;4.13;1.70;;;;;;;6.36;100.00;95472.84;5072856;28;24450;-78
2023/03/18 04:30:01;;;;;;;3.83;1.77;;;;;;;6.39;100.00;95477.84;5072642;28;25089;-74
2023/03/18 04:32:27;;;;;;;4.57;1.95;;;;;;;6.44;100.00;95465.56;5071226;28;24519;-78
2023/03/18 04:34:54;;;;;;;5.88;3.42;;;;;;;6.39;100.00;95476.09;5072568;28;24437;-76
2023/03/18 04:37:21;;;;;;;6.50;2.50;;;;;;;6.36;100.00;95465.97;5071228;28;24519;-77
2023/03/18 04:39:48;;;;;;;2.47;1.50;;;;;;;6.36;100.00;95468.53;5071002;28;20788;-77
2023/03/18 04:42:15;;;;;;;4.38;1.67;;;;;;;6.26;100.00;95462.19;5070681;28;24439;-76
2023/03/18 04:44:42;;;;;;;2.45;1.67;;;;;;;6.15;100.00;95462.72;5074069;28;24797;-78
2023/03/18 04:47:10;;;;;;;5.60;1.90;;;;;;;6.06;100.00;95465.78;5069273;28;24447;-76
2023/03/18 04:49:37;;;;;;;3.67;1.70;;;;;;;5.89;100.00;95470.88;5071354;28;24431;-75
2023/03/18 04:52:04;;;;;;;3.15;1.75;;;;;;;5.81;100.00;95473.81;5070418;28;24493;-77
2023/03/18 04:54:31;;;;;;;3.67;1.70;;;;;;;5.79;100.00;95480.78;5071241;28;24438;-77
2023/03/18 04:56:58;;;;;;;3.60;1.75;;;;;;;5.83;100.00;95474.59;5074600;28;24434;-77
2023/03/18 04:59:25;;;;;;;2.90;1.77;;;;;;;5.73;100.00;95471.63;5070471;28;24809;-77
2023/03/18 05:01:52;;;;;;;2.78;1.58;;;;;;;5.66;100.00;95475.38;5066628;28;24496;-77
2023/03/18 05:04:20;;;;;;;3.67;1.90;;;;;;;5.56;100.00;95474.16;5070355;28;24435;-77
2023/03/18 05:06:47;;;;;;;10.90;2.30;;;;;;;5.42;100.00;95472.28;5071893;28;24856;-76
2023/03/18 05:09:13;;;;;;;2.67;1.80;;;;;;;5.30;100.00;95463.41;5075558;28;24441;-77
2023/03/18 05:11:40;;;;;;;3.05;1.75;;;;;;;5.39;100.00;95466.44;5070341;28;24430;-77
2023/03/18 05:14:07;;;;;;;3.00;1.60;;;;;;;5.44;100.00;95470.44;5072911;28;24431;-77
2023/03/18 05:16:34;;;;;;;2.33;1.70;;;;;;;5.38;100.00;95477.59;5069641;28;24426;-77
2023/03/18 05:19:00;;;;;;;2.80;1.70;;;;;;;5.31;100.00;95482.22;5070471;28;24808;-76
2023/03/18 05:21:28;;;;;;;3.72;1.73;;;;;;;5.31;100.00;95484.78;5070214;28;24441;-76
2023/03/18 05:23:55;;;;;;;2.45;1.42;;;;;;;5.49;100.00;95481.34;5070222;28;24484;-77
2023/03/18 05:26:22;;;;;;;6.70;1.50;;;;;;;5.61;100.00;95484.25;5069794;28;24450;-77
2023/03/18 05:28:48;;;;;;;2.33;1.40;;;;;;;5.56;100.00;95479.28;5069692;28;24491;-77
2023/03/18 05:31:15;;;;;;;2.63;1.50;;;;;;;5.52;100.00;95482.91;5070224;28;24446;-77
2023/03/18 05:33:43;;;;;;;4.68;1.67;;;;;;;5.31;100.00;95489.91;5070240;28;24442;-77
2023/03/18 05:36:10;;;;;;;3.70;1.60;;;;;;;5.14;100.00;95482.97;5069520;28;24801;-76
2023/03/18 05:38:38;;;;;;;2.53;1.73;;;;;;;5.09;100.00;95484.94;5070609;28;24430;-77
2023/03/18 05:41:05;;;;;;;6.65;1.90;;;;;;;4.95;100.00;95493.25;5069822;28;24446;-76
2023/03/18 05:43:31;;;;;;;5.20;1.90;;;;;;;4.87;100.00;95487.66;5069855;28;24465;-76
2023/03/18 05:45:58;;;;;;;4.85;2.03;;;;;;;4.78;100.00;95488.91;5069353;28;24427;-76
2023/03/18 05:48:25;;;;;;;2.50;1.63;;;;;;;4.85;100.00;95490.25;5071402;28;20041;-76
2023/03/18 05:50:52;;;;;;;;;;;;;;;4.94;100.00;95488.22;5069546;28;20086;-76
2023/03/18 05:53:18;;;;;;;;;;;;;;;5.09;100.00;95493.47;5071574;28;19921;-76
2023/03/18 05:55:46;;;;;;;2.47;2.28;;;;;;;5.08;100.00;95488.41;5070650;28;19955;-76
2023/03/18 05:58:12;;;;;;;4.68;2.20;;;;;;;5.12;100.00;95489.06;5067244;28;20063;-77
2023/03/18 06:00:40;;;;;;;2.90;1.80;;;;;;;5.15;100.00;95492.34;5070545;28;20044;-76
2023/03/18 06:03:07;;;;;;;4.88;1.85;;;;;;;5.04;100.00;95494.56;5070905;28;20137;-77
2023/03/18 06:05:34;;;;;;;2.15;1.55;;;;;;;4.99;100.00;95497.34;5070722;28;20049;-76
2023/03/18 06:08:01;;;;;;;1.80;1.60;;;;;;;5.02;100.00;95499.78;5071213;28;20090;-76
2023/03/18 06:10:27;;;;;;;2.47;1.50;;;;;;;5.00;100.00;95499.00;5070949;28;20051;-76
2023/03/18 06:12:55;;;;;;;2.70;1.60;;;;;;;5.00;100.00;95491.31;5071069;28;20055;-77
2023/03/18 06:15:23;;;;;;;4.03;2.03;;;;;;;5.07;100.00;95495.25;5065937;28;20131;-76
2023/03/18 06:17:50;;;;;;;5.03;1.83;;;;;;;5.02;100.00;95494.66;5070856;28;20047;-76
2023/03/18 06:20:18;;;;;;;2.95;1.63;;;;;;;5.00;100.00;95493.03;5070852;28;20045;-77
2023/03/18 06:22:48;;;;;;;4.70;1.65;;;;;;;5.03;100.00;95496.31;5070530;28;20048;-76
2023/03/18 06:25:16;;;;;;;3.28;1.55;;;;;;;5.06;100.00;95497.91;5069941;28;20048;-77
2023/03/18 06:27:42;;;;;;;3.38;1.58;;;;;;;5.13;100.00;95504.44;5070530;28;20044;-77
2023/03/18 06:30:12;;;;;;;5.88;2.03;;;;;;;5.40;100.00;95512.59;5070526;28;20513;-77
2023/03/18 06:32:39;;;;;;;2.15;1.73;;;;;;;5.58;100.00;95505.75;5068755;28;20422;-76
2023/03/18 06:35:06;;;;;;;3.40;1.95;;;;;;;5.61;100.00;95497.09;5072840;28;20101;-77
2023/03/18 06:37:33;;;;;;;9.57;2.15;;;;;;;5.59;100.00;95494.56;5070276;28;20467;-77
2023/03/18 06:40:00;;;;;;;3.60;2.58;;;;;;;5.75;100.00;95507.53;5070711;28;20060;-77
2023/03/18 06:42:26;;;;;;;8.63;3.38;;;;;;;5.90;100.00;95511.94;5071605;28;20087;-77
2023/03/18 06:44:53;;;;;;;6.03;3.20;;;;;;;6.14;100.00;95509.91;5070307;28;20052;-77
2023/03/18 06:47:22;;;;;;;6.28;3.08;;;;;;;6.42;100.00;95503.41;5070404;28;20529;-77
2023/03/18 06:49:48;;;;;;;5.82;2.92;;;;;;;6.72;100.00;95512.13;5070424;28;20044;-77
2023/03/18 06:52:16;;;;;;;7.15;3.10;;;;;;;6.96;100.00;95511.75;5073938;28;20048;-76
2023/03/18 06:54:43;;;;;;;4.28;2.00;;;;;;;7.17;100.00;95507.22;5079327;28;20110;-76
2023/03/18 06:57:10;;;;;;;4.95;2.65;;;;;;;7.41;100.00;95499.91;5070112;28;20050;-77
2023/03/18 06:59:38;;;;;;;5.00;2.25;;;;;;;7.65;100.00;95497.72;5070529;28;20117;-76
2023/03/18 07:02:05;;;;;;;3.45;2.03;;;;;;;7.89;100.00;95508.41;5070274;28;20513;-76
2023/03/18 07:04:33;;;;;;;3.90;2.28;;;;;;;7.97;100.00;95496.75;5070108;28;20083;-76
2023/03/18 07:07:00;;;;;;;3.40;1.80;;;;;;;7.89;100.00;95503.25;5070339;28;20436;-77
2023/03/18 07:09:26;;;;;;;9.15;2.03;;;;;;;7.90;100.00;95510.09;5070236;28;20059;-77
2023/03/18 07:11:53;;;;;;;2.88;1.65;;;;;;;7.80;99.12;95502.03;5069941;28;20048;-76
2023/03/18 07:14:19;;;;;;;4.05;1.35;;;;;;;7.86;99.20;95503.41;5072432;28;20092;-77
2023/03/18 07:16:46;;;;;;;7.07;1.45;;;;;;;8.05;98.31;95509.22;5072799;28;20495;-77
2023/03/18 07:19:14;;;;;;;;;;;;;;;8.16;96.25;95513.78;5074557;28;20468;-77
2023/03/18 07:21:42;;;;;;;2.30;1.55;;;;;;;8.06;96.30;95516.03;5073381;28;20379;-77
2023/03/18 07:24:10;;;;;;;3.45;1.85;;;;;;;7.95;96.81;95513.22;5073821;28;20094;-77
2023/03/18 07:26:37;;;;;;;3.63;1.80;;;;;;;8.29;95.40;95509.53;5074232;28;20053;-77
2023/03/18 07:29:03;;;;;;;3.10;1.80;;;;;;;8.35;94.15;95510.94;5069731;28;20047;-76
2023/03/18 07:31:30;;;;;;;;;;;;;;;8.61;92.37;95512.88;5073890;28;20481;-77
2023/03/18 07:33:56;;;;;;;2.90;1.63;;;;;;;8.73;89.87;95517.28;5073103;28;19966;-77
2023/03/18 07:36:23;;;;;;;;;;;;;;;8.87;88.52;95516.47;5074012;28;20084;-76
2023/03/18 07:38:50;;;;;;;;;;;;;;;9.26;85.77;95516.72;5073968;28;19920;-76
2023/03/18 07:41:17;;;;;;;;;;;;;;;9.29;84.40;95513.94;5074347;28;19956;-77
2023/03/18 07:43:43;;;;;;;;;;;;;;;9.67;82.99;95522.72;5074075;28;20050;-77
2023/03/18 07:46:10;;;;;;;;;;;;;;;9.55;83.49;95525.25;5075305;28;19936;-76
2023/03/18 07:48:36;;;;;;;;;;;;;;;9.73;81.90;95520.69;5073923;28;19920;-77
2023/03/18 07:51:02;;;;;;;;;;;;;;;9.74;80.08;95517.16;5074001;28;19920;-77
2023/03/18 07:53:29;;;;;;;;;;;;;;;9.94;80.64;95524.50;5073993;28;20302;-77
2023/03/18 07:55:57;;;;;;;;;;;;;;;9.89;81.45;95524.78;5073395;28;19924;-77
2023/03/18 07:58:23;;;;;;;;;;;;;;;10.11;80.29;95531.16;5073868;28;20363;-77
2023/03/18 08:00:49;;;;;;;;;;;;;;;10.17;79.04;95521.25;5078759;28;19931;-77
2023/03/18 08:03:16;;;;;;;;;;;;;;;10.43;78.55;95528.28;5073519;28;20406;-75
2023/03/18 08:05:42;;;;;;;;;;;;;;;10.53;78.04;95522.38;5073151;28;19920;-77
2023/03/18 08:08:08;;;;;;;;;;;;;;;10.98;75.11;95525.41;5073471;28;19928;-76
2023/03/18 08:10:35;;;;;;;;;;;;;;;11.33;74.87;95524.72;5072368;28;19924;-76
2023/03/18 08:13:03;;;;;;;;;;;;;;;11.58;72.93;95526.44;5073373;28;19975;-76
2023/03/18 08:15:30;;;;;;;;;;;;;;;12.00;71.79;95519.97;5078169;28;19921;-77
2023/03/18 08:17:56;;;;;;;;;;;;;;;12.07;69.86;95525.53;5073418;28;19920;-77
2023/03/18 08:20:22;;;;;;;;;;;;;;;12.05;68.04;95519.63;5073050;28;19924;-76
2023/03/18 08:22:49;;;;;;;;;;;;;;;12.52;69.73;95526.53;5073278;28;20286;-77
2023/03/18 08:25:15;;;;;;;;;;;;;;;12.96;65.94;95524.13;5079028;28;19924;-77
2023/03/18 08:27:42;;;;;;;;;;;;;;;13.10;61.28;95518.72;5068014;28;19920;-77
2023/03/18 08:30:11;;;;;;;;;;;;;;;13.10;60.30;95521.31;5072874;28;19920;-78
2023/03/18 08:32:37;;;;;;;;;;;;;;;13.46;58.72;95522.03;5073224;28;19960;-78
2023/03/18 08:35:04;;;;;;;;;;;;;;;13.48;58.02;95520.97;5072614;28;19927;-77
2023/03/18 08:37:30;;;;;;;;;;;;;;;13.47;57.19;95510.69;5072765;28;19928;-77
2023/03/18 08:39:57;;;;;;;;;;;;;;;13.34;56.89;95516.00;5072728;28;19921;-77
2023/03/18 08:42:23;;;;;;;;;;;;;;;13.53;56.19;95510.19;5072421;28;19967;-77
2023/03/18 08:44:50;;;;;;;;;;;;;;;13.34;55.49;95512.56;5072124;28;19924;-77
2023/03/18 08:47:17;;;;;;;;;;;;;;;13.46;57.42;95509.00;5072443;28;19920;-77
2023/03/18 08:49:44;;;;;;;;;;;;;;;13.81;56.40;95508.84;5072558;28;19920;-77
2023/03/18 08:52:10;;;;;;;;;;;;;;;13.68;54.34;95516.81;5072471;28;20020;-77
2023/03/18 08:54:36;;;;;;;;;;;;;;;14.14;54.54;95514.91;5071906;28;20011;-77
2023/03/18 08:57:03;;;;;;;;;;;;;;;14.03;56.12;95519.19;5072139;28;19921;-77
2023/03/18 08:59:29;;;;;;;;;;;;;;;13.66;55.76;95518.69;5072476;28;19920;-76
2023/03/18 09:01:56;;;;;;;;;;;;;;;13.69;55.58;95513.25;5072590;28;19935;-76
2023/03/18 09:04:24;;;;;;;;;;;;;;;13.78;53.53;95512.50;5077958;28;19920;-76
2023/03/18 09:06:51;;;;;;;;;;;;;;;14.00;54.20;95511.63;5072278;28;20011;-76
2023/03/18 09:09:17;;;;;;;;;;;;;;;14.56;53.62;95507.97;5076755;28;19931;-76
2023/03/18 09:11:45;;;;;;;;;;;;;;;14.63;52.51;95506.50;5073156;28;19920;-76
2023/03/18 09:14:12;;;;;;;;;;;;;;;14.78;51.24;95514.84;5072459;28;19920;-76
2023/03/18 09:16:38;;;;;;;;;;;;;;;15.05;50.13;95501.25;5071620;28;19928;-76
2023/03/18 09:19:04;;;;;;;;;;;;;;;15.30;49.06;95502.59;5072160;28;19924;-76
2023/03/18 09:21:32;;;;;;;;;;;;;;;15.10;48.62;95501.69;5071926;28;19921;-76
2023/03/18 09:23:58;;;;;;;;;;;;;;;15.15;49.42;95507.34;5075951;28;19920;-77
2023/03/18 09:26:24;;;;;;;;;;;;;;;15.47;49.99;95503.78;5072287;28;19924;-76
2023/03/18 09:28:51;;;;;;;;;;;;;;;15.90;49.56;95498.25;5072207;28;19927;-76
2023/03/18 09:31:18;;;;;;;;;;;;;;;15.90;47.05;95502.66;5071960;28;19924;-76
2023/03/18 09:33:45;;;;;;;;;;;;;;;16.13;45.83;95501.44;5072320;28;19928;-76
2023/03/18 09:36:12;;;;;;;;;;;;;;;16.35;44.02;95496.88;5070969;28;19920;-76
2023/03/18 09:38:41;;;;;;;;;;;;;;;16.42;44.93;95498.00;5071783;28;19953;-76
2023/03/18 09:41:16;;;;;;;;;;;;;;;16.59;43.44;95499.09;5071710;28;19924;-76
2023/03/18 09:43:49;;;;;;;;;;;;;;;16.32;46.58;95489.34;5071732;28;19944;-76
2023/03/18 09:46:21;;;;;;;;;;;;;;;16.43;46.00;95490.03;5069961;28;20007;-76
2023/03/18 09:49:05;;;;;;;;;;;;;;;16.38;45.63;95483.56;5071797;28;20275;-77
2023/03/18 09:51:37;;;;;;;;;;;;;;;16.36;43.93;95488.94;5068025;28;19927;-76
2023/03/18 09:54:08;;;;;;;;;;;;;;;16.26;44.32;95489.91;5071467;28;19924;-76
2023/03/18 09:56:38;;;;;;;;;;;;;;;16.60;44.36;95478.03;5070308;28;21321;-75
2023/03/18 09:59:06;;;;;;;;;;;;;;;16.66;41.45;95485.31;5068149;28;19928;-76
2023/03/18 10:01:36;;;;;;;;;;;;;;;16.82;42.58;95479.53;5071282;28;20409;-75
2023/03/18 10:04:04;;;;;;;;;;;;;;;17.04;42.72;95478.34;5075630;28;19931;-76
2023/03/18 10:06:31;;;;;;;;;;;;;;;16.15;43.01;95476.00;5072333;28;19928;-75
2023/03/18 10:09:02;;;;;;;;;;;;;;;16.36;42.32;95483.69;5071495;28;19939;-75
2023/03/18 10:11:31;;;;;;;;;;;;;;;16.03;41.84;95484.94;5071338;28;19924;-76
2023/03/18 10:14:08;;;;;;;;;;;;;;;16.20;42.55;95486.88;5071645;28;19993;-76
2023/03/18 10:16:43;;;;;;;;;;;;;;;16.76;43.26;95490.56;5070676;28;19978;-75
2023/03/18 10:19:10;;;;;;;;;;;;;;;17.28;41.95;95485.72;5071645;28;19936;-76
2023/03/18 10:21:42;;;;;;;;;;;;;;;17.15;40.89;95486.03;5069729;28;19924;-75
2023/03/18 10:24:20;;;;;;;;;;;;;;;16.85;41.37;95487.09;5071577;28;20325;-76
2023/03/18 10:26:49;;;;;;;;;;;;;;;16.87;41.75;95487.78;5069217;28;19924;-75
2023/03/18 10:29:28;;;;;;;;;;;;;;;16.77;42.09;95481.75;5071334;28;20013;-75
2023/03/18 10:32:00;;;;;;;;;;;;;;;17.13;40.18;95482.75;5068082;28;20325;-76
2023/03/18 10:34:31;;;;;;;;;;;;;;;17.23;43.66;95485.31;5074570;28;19924;-75
2023/03/18 10:37:05;;;;;;;;;;;;;;;17.22;41.04;95485.47;5063457;28;20375;-75
2023/03/18 10:39:32;;;;;;;;;;;;;;;17.56;38.88;95486.53;5071280;28;20275;-75
2023/03/18 10:42:01;;;;;;;;;;;;;;;17.66;39.41;95476.84;5071488;28;19925;-76
2023/03/18 10:44:30;;;;;;;;;;;;;;;17.18;38.14;95472.66;5070973;28;19924;-75
2023/03/18 10:46:58;;;;;;;;;;;;;;;17.42;38.68;95474.75;5071217;28;19924;-75
2023/03/18 10:49:27;;;;;;;;;;;;;;;16.53;35.95;95479.53;5077972;28;19935;-74
2023/03/18 10:51:55;;;;;;;;;;;;;;;16.55;34.55;95476.81;5074792;28;19929;-76
2023/03/18 10:54:24;;;;;;;;;;;;;;;16.37;35.65;95480.13;5074460;28;19925;-75
2023/03/18 10:56:51;;;;;;;;;;;;;;;16.67;36.72;95475.66;5074888;28;19991;-76
2023/03/18 10:59:21;;;;;;;;;;;;;;;16.66;35.52;95468.81;5078457;28;20007;-74
2023/03/18 11:01:48;;;;;;;;;;;;;;;16.83;36.45;95467.25;5074691;28;19933;-75
2023/03/18 11:04:17;;;;;;;;;;;;;;;16.74;36.35;95455.06;5074572;28;20606;-77
2023/03/18 11:06:46;;;;;;;;;;;;;;;16.70;36.75;95463.16;5074691;28;19956;-76
2023/03/18 11:09:15;;;;;;;;;;;;;;;16.93;36.02;95458.44;5074520;28;19928;-76
2023/03/18 11:11:42;;;;;;;;;;;;;;;16.87;36.00;95450.31;5074308;28;20394;-76
2023/03/18 11:14:13;;;;;;;;;;;;;;;16.71;35.11;95463.97;5078330;28;19925;-76
2023/03/18 11:16:41;;;;;;;;;;;;;;;16.54;35.39;95455.06;5074237;28;19925;-76
2023/03/18 11:19:26;;;;;;;;;;;;;;;16.44;35.16;95449.84;5074291;28;20078;-77
2023/03/18 11:22:00;;;;;;;;;;;;;;;16.44;34.89;95452.47;5073156;28;19932;-76
2023/03/18 11:24:37;;;;;;;;;;;;;;;16.33;35.13;95457.03;5077763;28;19967;-76
2023/03/18 11:27:04;;;;;;;;;;;;;;;16.25;35.42;95455.09;5071556;28;20322;-76
2023/03/18 11:29:32;;;;;;;;;;;;;;;16.41;35.95;95451.91;5070900;28;19936;-77
2023/03/18 11:32:00;;;;;;;;;;;;;;;16.35;35.83;95453.31;5073766;28;20007;-76
2023/03/18 11:34:27;;;;;;;;;;;;;;;16.18;35.94;95452.22;5070381;28;19940;-77
2023/03/18 11:36:57;;;;;;;;;;;;;;;16.15;35.46;95452.47;5074031;28;19928;-76
2023/03/18 11:39:25;;;;;;;;;;;;;;;16.39;36.20;95457.28;5074139;28;19935;-76
2023/03/18 11:41:52;;;;;;;;;;;;;;;16.50;36.75;95456.31;5065721;28;19925;-76
2023/03/18 11:44:23;;;;;;;;;;;;;;;16.50;34.92;95453.72;5073450;28;20382;-76
2023/03/18 11:46:52;;;;;;;;;;;;;;;16.59;35.83;95452.84;5073945;28;19928;-77
2023/03/18 11:49:21;;;;;;;;;;;;;;;16.54;35.69;95460.31;5073848;28;19924;-76
2023/03/18 11:51:54;;;;;;;;;;;;;;;16.41;35.52;95447.50;5073866;28;19925;-76
2023/03/18 11:54:34;;;;;;;;;;;;;;;16.36;36.90;95443.69;5074172;28;19978;-76
2023/03/18 11:57:03;;;;;;;;;;;;;;;16.49;34.93;95436.34;5067163;28;20375;-77
2023/03/18 11:59:34;;;;;;;;;;;;;;;16.32;34.42;95429.25;5070107;28;19951;-76
2023/03/18 12:02:12;;;;;;;;;;;;;;;16.32;36.80;95424.84;5074004;28;19929;-77
2023/03/18 12:04:51;;;;;;;;;;;;;;;16.57;35.96;95428.63;5073457;28;19924;-76